sensor_id;sensor_type;location;lat;lon;timestamp;P1;durP1;ratioP1;P2;durP2;ratioP2
29908;SDS011;36247;51.952;6.146;2023-04-06T00:00:39;24.25;;;13.88;;
29908;SDS011;36247;51.952;6.146;2023-04-06T00:03:06;29.55;;;15.60;;
29908;SDS011;36247;51.952;6.146;2023-04-06T00:05:32;23.95;;;14.43;;
29908;SDS011;36247;51.952;6.146;2023-04-06T00:08:01;28.27;;;14.85;;
29908;SDS011;36247;51.952;6.146;2023-04-06T00:10:27;26.75;;;14.80;;
29908;SDS011;36247;51.952;6.146;2023-04-06T00:12:57;27.48;;;13.80;;
29908;SDS011;36247;51.952;6.146;2023-04-06T00:15:32;24.50;;;13.52;;
29908;SDS011;36247;51.952;6.146;2023-04-06T00:18:02;22.52;;;12.23;;
29908;SDS011;36247;51.952;6.146;2023-04-06T00:20:28;27.23;;;12.43;;
29908;SDS011;36247;51.952;6.146;2023-04-06T00:22:54;24.33;;;12.85;;
29908;SDS011;36247;51.952;6.146;2023-04-06T00:25:23;24.88;;;13.55;;
29908;SDS011;36247;51.952;6.146;2023-04-06T00:27:49;19.70;;;12.40;;
29908;SDS011;36247;51.952;6.146;2023-04-06T00:30:15;24.05;;;12.57;;
29908;SDS011;36247;51.952;6.146;2023-04-06T00:32:41;24.38;;;13.90;;
29908;SDS011;36247;51.952;6.146;2023-04-06T00:35:07;25.77;;;13.60;;
29908;SDS011;36247;51.952;6.146;2023-04-06T00:37:33;24.50;;;13.50;;
29908;SDS011;36247;51.952;6.146;2023-04-06T00:40:08;25.73;;;13.88;;
29908;SDS011;36247;51.952;6.146;2023-04-06T00:42:35;25.50;;;13.57;;
29908;SDS011;36247;51.952;6.146;2023-04-06T00:45:19;27.73;;;14.25;;
29908;SDS011;36247;51.952;6.146;2023-04-06T00:47:48;25.02;;;14.38;;
29908;SDS011;36247;51.952;6.146;2023-04-06T00:50:14;23.20;;;13.35;;
29908;SDS011;36247;51.952;6.146;2023-04-06T00:52:40;22.95;;;13.82;;
29908;SDS011;36247;51.952;6.146;2023-04-06T00:55:07;27.05;;;15.27;;
29908;SDS011;36247;51.952;6.146;2023-04-06T00:57:40;24.60;;;14.13;;
29908;SDS011;36247;51.952;6.146;2023-04-06T01:00:06;25.90;;;13.23;;
29908;SDS011;36247;51.952;6.146;2023-04-06T01:02:37;23.90;;;13.75;;
29908;SDS011;36247;51.952;6.146;2023-04-06T01:05:03;27.85;;;15.15;;
29908;SDS011;36247;51.952;6.146;2023-04-06T01:07:47;23.05;;;14.00;;
29908;SDS011;36247;51.952;6.146;2023-04-06T01:10:26;26.33;;;15.10;;
29908;SDS011;36247;51.952;6.146;2023-04-06T01:13:18;27.25;;;15.55;;
29908;SDS011;36247;51.952;6.146;2023-04-06T01:15:49;31.27;;;14.40;;
29908;SDS011;36247;51.952;6.146;2023-04-06T01:18:25;25.58;;;14.40;;
29908;SDS011;36247;51.952;6.146;2023-04-06T01:21:17;26.63;;;15.20;;
29908;SDS011;36247;51.952;6.146;2023-04-06T01:24:00;29.23;;;15.77;;
29908;SDS011;36247;51.952;6.146;2023-04-06T01:29:08;26.92;;;14.38;;
29908;SDS011;36247;51.952;6.146;2023-04-06T01:31:36;21.58;;;13.20;;
29908;SDS011;36247;51.952;6.146;2023-04-06T01:34:06;24.15;;;13.90;;
29908;SDS011;36247;51.952;6.146;2023-04-06T01:36:36;25.50;;;12.73;;
29908;SDS011;36247;51.952;6.146;2023-04-06T01:39:21;24.75;;;14.15;;
29908;SDS011;36247;51.952;6.146;2023-04-06T01:41:47;25.98;;;14.18;;
29908;SDS011;36247;51.952;6.146;2023-04-06T01:44:17;24.27;;;14.02;;
29908;SDS011;36247;51.952;6.146;2023-04-06T01:46:49;30.27;;;14.68;;
29908;SDS011;36247;51.952;6.146;2023-04-06T01:49:17;26.52;;;15.13;;
29908;SDS011;36247;51.952;6.146;2023-04-06T01:51:48;23.95;;;14.43;;
29908;SDS011;36247;51.952;6.146;2023-04-06T01:54:14;24.80;;;14.27;;
29908;SDS011;36247;51.952;6.146;2023-04-06T01:57:07;27.27;;;14.13;;
29908;SDS011;36247;51.952;6.146;2023-04-06T01:59:43;23.95;;;13.32;;
29908;SDS011;36247;51.952;6.146;2023-04-06T02:02:32;22.80;;;13.68;;
29908;SDS011;36247;51.952;6.146;2023-04-06T02:05:03;23.60;;;13.65;;
29908;SDS011;36247;51.952;6.146;2023-04-06T02:07:38;22.15;;;13.55;;
29908;SDS011;36247;51.952;6.146;2023-04-06T02:10:18;23.60;;;13.57;;
29908;SDS011;36247;51.952;6.146;2023-04-06T02:12:45;21.23;;;13.77;;
29908;SDS011;36247;51.952;6.146;2023-04-06T02:15:18;25.15;;;14.18;;
29908;SDS011;36247;51.952;6.146;2023-04-06T02:17:43;22.45;;;14.82;;
29908;SDS011;36247;51.952;6.146;2023-04-06T02:20:10;20.63;;;13.50;;
29908;SDS011;36247;51.952;6.146;2023-04-06T02:22:43;20.98;;;12.65;;
29908;SDS011;36247;51.952;6.146;2023-04-06T02:25:10;21.02;;;13.45;;
29908;SDS011;36247;51.952;6.146;2023-04-06T02:27:38;22.75;;;14.05;;
29908;SDS011;36247;51.952;6.146;2023-04-06T02:30:05;21.25;;;12.50;;
29908;SDS011;36247;51.952;6.146;2023-04-06T02:32:32;22.08;;;12.57;;
29908;SDS011;36247;51.952;6.146;2023-04-06T02:34:58;21.20;;;12.55;;
29908;SDS011;36247;51.952;6.146;2023-04-06T02:37:24;24.45;;;12.95;;
29908;SDS011;36247;51.952;6.146;2023-04-06T02:39:51;17.63;;;12.10;;
29908;SDS011;36247;51.952;6.146;2023-04-06T02:42:17;17.27;;;11.60;;
29908;SDS011;36247;51.952;6.146;2023-04-06T02:44:53;19.08;;;13.45;;
29908;SDS011;36247;51.952;6.146;2023-04-06T02:47:25;18.15;;;11.90;;
29908;SDS011;36247;51.952;6.146;2023-04-06T02:49:51;20.25;;;12.23;;
29908;SDS011;36247;51.952;6.146;2023-04-06T02:52:17;21.00;;;13.02;;
29908;SDS011;36247;51.952;6.146;2023-04-06T02:54:44;16.98;;;11.60;;
29908;SDS011;36247;51.952;6.146;2023-04-06T02:57:10;20.58;;;12.07;;
29908;SDS011;36247;51.952;6.146;2023-04-06T02:59:40;19.70;;;12.18;;
29908;SDS011;36247;51.952;6.146;2023-04-06T03:02:18;23.27;;;12.15;;
29908;SDS011;36247;51.952;6.146;2023-04-06T03:04:50;17.80;;;12.02;;
29908;SDS011;36247;51.952;6.146;2023-04-06T03:07:26;20.00;;;12.48;;
29908;SDS011;36247;51.952;6.146;2023-04-06T03:09:51;20.10;;;12.13;;
29908;SDS011;36247;51.952;6.146;2023-04-06T03:12:17;22.20;;;13.48;;
29908;SDS011;36247;51.952;6.146;2023-04-06T03:15:05;19.77;;;12.50;;
29908;SDS011;36247;51.952;6.146;2023-04-06T03:17:32;20.98;;;13.02;;
29908;SDS011;36247;51.952;6.146;2023-04-06T03:20:05;21.60;;;12.73;;
29908;SDS011;36247;51.952;6.146;2023-04-06T03:22:31;19.10;;;12.30;;
29908;SDS011;36247;51.952;6.146;2023-04-06T03:24:58;20.30;;;11.40;;
29908;SDS011;36247;51.952;6.146;2023-04-06T03:27:24;17.98;;;11.68;;
29908;SDS011;36247;51.952;6.146;2023-04-06T03:29:50;18.42;;;11.57;;
29908;SDS011;36247;51.952;6.146;2023-04-06T03:32:22;14.23;;;9.45;;
29908;SDS011;36247;51.952;6.146;2023-04-06T03:34:49;17.90;;;11.00;;
29908;SDS011;36247;51.952;6.146;2023-04-06T03:37:15;15.98;;;10.82;;
29908;SDS011;36247;51.952;6.146;2023-04-06T03:39:46;19.98;;;11.57;;
29908;SDS011;36247;51.952;6.146;2023-04-06T03:42:20;17.75;;;11.23;;
29908;SDS011;36247;51.952;6.146;2023-04-06T03:44:52;18.58;;;13.05;;
29908;SDS011;36247;51.952;6.146;2023-04-06T03:47:18;22.00;;;12.43;;
29908;SDS011;36247;51.952;6.146;2023-04-06T03:49:44;22.95;;;12.98;;
29908;SDS011;36247;51.952;6.146;2023-04-06T03:52:12;19.73;;;12.82;;
29908;SDS011;36247;51.952;6.146;2023-04-06T03:54:45;19.70;;;12.35;;
29908;SDS011;36247;51.952;6.146;2023-04-06T03:57:14;17.58;;;11.82;;
29908;SDS011;36247;51.952;6.146;2023-04-06T03:59:41;17.80;;;12.27;;
29908;SDS011;36247;51.952;6.146;2023-04-06T04:02:06;15.23;;;10.95;;
29908;SDS011;36247;51.952;6.146;2023-04-06T04:04:32;17.77;;;11.82;;
29908;SDS011;36247;51.952;6.146;2023-04-06T04:06:57;18.42;;;11.60;;
29908;SDS011;36247;51.952;6.146;2023-04-06T04:09:23;19.98;;;10.77;;
29908;SDS011;36247;51.952;6.146;2023-04-06T04:11:50;21.42;;;12.38;;
29908;SDS011;36247;51.952;6.146;2023-04-06T04:14:15;18.75;;;11.90;;
29908;SDS011;36247;51.952;6.146;2023-04-06T04:16:41;21.15;;;12.35;;
29908;SDS011;36247;51.952;6.146;2023-04-06T04:19:07;19.98;;;11.27;;
29908;SDS011;36247;51.952;6.146;2023-04-06T04:21:33;20.60;;;12.68;;
29908;SDS011;36247;51.952;6.146;2023-04-06T04:24:05;18.30;;;11.88;;
29908;SDS011;36247;51.952;6.146;2023-04-06T04:26:33;20.10;;;12.73;;
29908;SDS011;36247;51.952;6.146;2023-04-06T04:28:59;29.00;;;11.82;;
29908;SDS011;36247;51.952;6.146;2023-04-06T04:31:25;20.13;;;12.50;;
29908;SDS011;36247;51.952;6.146;2023-04-06T04:33:55;21.40;;;12.80;;
29908;SDS011;36247;51.952;6.146;2023-04-06T04:36:27;19.92;;;11.60;;
29908;SDS011;36247;51.952;6.146;2023-04-06T04:38:54;20.65;;;12.60;;
29908;SDS011;36247;51.952;6.146;2023-04-06T04:41:21;18.13;;;12.35;;
29908;SDS011;36247;51.952;6.146;2023-04-06T04:43:48;24.23;;;13.70;;
29908;SDS011;36247;51.952;6.146;2023-04-06T04:46:20;20.25;;;12.38;;
29908;SDS011;36247;51.952;6.146;2023-04-06T04:48:46;23.58;;;12.70;;
29908;SDS011;36247;51.952;6.146;2023-04-06T04:51:11;17.95;;;12.73;;
29908;SDS011;36247;51.952;6.146;2023-04-06T04:54:03;22.75;;;13.63;;
29908;SDS011;36247;51.952;6.146;2023-04-06T04:56:30;19.25;;;12.45;;
29908;SDS011;36247;51.952;6.146;2023-04-06T04:59:06;21.65;;;12.30;;
29908;SDS011;36247;51.952;6.146;2023-04-06T05:01:36;20.83;;;12.52;;
29908;SDS011;36247;51.952;6.146;2023-04-06T05:04:05;22.75;;;14.18;;
29908;SDS011;36247;51.952;6.146;2023-04-06T05:06:30;21.95;;;13.60;;
29908;SDS011;36247;51.952;6.146;2023-04-06T05:08:56;22.23;;;12.95;;
29908;SDS011;36247;51.952;6.146;2023-04-06T05:11:22;23.90;;;13.32;;
29908;SDS011;36247;51.952;6.146;2023-04-06T05:13:55;22.27;;;12.68;;
29908;SDS011;36247;51.952;6.146;2023-04-06T05:16:23;19.77;;;13.50;;
29908;SDS011;36247;51.952;6.146;2023-04-06T05:18:50;21.63;;;13.27;;
29908;SDS011;36247;51.952;6.146;2023-04-06T05:21:16;21.67;;;13.40;;
29908;SDS011;36247;51.952;6.146;2023-04-06T05:23:58;19.40;;;12.73;;
29908;SDS011;36247;51.952;6.146;2023-04-06T05:26:25;26.55;;;14.80;;
29908;SDS011;36247;51.952;6.146;2023-04-06T05:28:56;23.20;;;13.63;;
29908;SDS011;36247;51.952;6.146;2023-04-06T05:31:25;23.75;;;13.88;;
29908;SDS011;36247;51.952;6.146;2023-04-06T05:33:53;22.10;;;14.30;;
29908;SDS011;36247;51.952;6.146;2023-04-06T05:36:29;24.75;;;14.00;;
29908;SDS011;36247;51.952;6.146;2023-04-06T05:39:01;23.67;;;13.55;;
29908;SDS011;36247;51.952;6.146;2023-04-06T05:41:33;24.85;;;14.43;;
29908;SDS011;36247;51.952;6.146;2023-04-06T05:44:01;25.42;;;13.95;;
29908;SDS011;36247;51.952;6.146;2023-04-06T05:46:28;26.15;;;14.05;;
29908;SDS011;36247;51.952;6.146;2023-04-06T05:48:56;25.05;;;14.68;;
29908;SDS011;36247;51.952;6.146;2023-04-06T05:51:26;26.30;;;15.18;;
29908;SDS011;36247;51.952;6.146;2023-04-06T05:53:52;25.70;;;15.27;;
29908;SDS011;36247;51.952;6.146;2023-04-06T05:56:19;24.42;;;15.07;;
29908;SDS011;36247;51.952;6.146;2023-04-06T05:58:44;29.98;;;15.00;;
29908;SDS011;36247;51.952;6.146;2023-04-06T06:01:13;23.92;;;16.10;;
29908;SDS011;36247;51.952;6.146;2023-04-06T06:03:44;24.63;;;15.40;;
29908;SDS011;36247;51.952;6.146;2023-04-06T06:06:10;23.00;;;14.90;;
29908;SDS011;36247;51.952;6.146;2023-04-06T06:08:58;24.13;;;15.27;;
29908;SDS011;36247;51.952;6.146;2023-04-06T06:11:28;28.25;;;15.35;;
29908;SDS011;36247;51.952;6.146;2023-04-06T06:13:54;22.52;;;15.07;;
29908;SDS011;36247;51.952;6.146;2023-04-06T06:16:20;25.98;;;15.85;;
29908;SDS011;36247;51.952;6.146;2023-04-06T06:18:47;23.65;;;15.10;;
29908;SDS011;36247;51.952;6.146;2023-04-06T06:21:13;27.60;;;15.13;;
29908;SDS011;36247;51.952;6.146;2023-04-06T06:23:45;21.65;;;14.00;;
29908;SDS011;36247;51.952;6.146;2023-04-06T06:26:16;24.73;;;14.48;;
29908;SDS011;36247;51.952;6.146;2023-04-06T06:28:42;23.92;;;14.82;;
29908;SDS011;36247;51.952;6.146;2023-04-06T06:31:10;23.67;;;15.30;;
29908;SDS011;36247;51.952;6.146;2023-04-06T06:33:35;27.05;;;14.85;;
29908;SDS011;36247;51.952;6.146;2023-04-06T06:36:02;29.42;;;17.17;;
29908;SDS011;36247;51.952;6.146;2023-04-06T06:38:33;28.63;;;15.23;;
29908;SDS011;36247;51.952;6.146;2023-04-06T06:40:59;27.17;;;14.40;;
29908;SDS011;36247;51.952;6.146;2023-04-06T06:43:28;25.55;;;15.52;;
29908;SDS011;36247;51.952;6.146;2023-04-06T06:45:58;24.27;;;15.35;;
29908;SDS011;36247;51.952;6.146;2023-04-06T06:48:24;27.20;;;14.70;;
29908;SDS011;36247;51.952;6.146;2023-04-06T06:50:50;34.85;;;16.83;;
29908;SDS011;36247;51.952;6.146;2023-04-06T06:53:16;26.85;;;16.05;;
29908;SDS011;36247;51.952;6.146;2023-04-06T06:55:42;26.02;;;14.57;;
29908;SDS011;36247;51.952;6.146;2023-04-06T06:58:09;29.10;;;15.93;;
29908;SDS011;36247;51.952;6.146;2023-04-06T07:00:36;25.40;;;15.98;;
29908;SDS011;36247;51.952;6.146;2023-04-06T07:03:03;38.50;;;16.35;;
29908;SDS011;36247;51.952;6.146;2023-04-06T07:05:29;28.83;;;16.48;;
29908;SDS011;36247;51.952;6.146;2023-04-06T07:07:57;25.75;;;16.42;;
29908;SDS011;36247;51.952;6.146;2023-04-06T07:10:24;31.48;;;16.02;;
29908;SDS011;36247;51.952;6.146;2023-04-06T07:12:51;26.52;;;15.60;;
29908;SDS011;36247;51.952;6.146;2023-04-06T07:15:18;28.50;;;16.00;;
29908;SDS011;36247;51.952;6.146;2023-04-06T07:17:48;24.92;;;15.88;;
29908;SDS011;36247;51.952;6.146;2023-04-06T07:20:36;30.42;;;16.05;;
29908;SDS011;36247;51.952;6.146;2023-04-06T07:23:09;26.90;;;15.65;;
29908;SDS011;36247;51.952;6.146;2023-04-06T07:26:05;30.38;;;15.70;;
29908;SDS011;36247;51.952;6.146;2023-04-06T07:28:36;27.45;;;16.58;;
29908;SDS011;36247;51.952;6.146;2023-04-06T07:31:10;28.58;;;16.73;;
29908;SDS011;36247;51.952;6.146;2023-04-06T07:33:39;26.20;;;16.13;;
29908;SDS011;36247;51.952;6.146;2023-04-06T07:36:05;26.00;;;16.23;;
29908;SDS011;36247;51.952;6.146;2023-04-06T07:38:31;27.08;;;17.10;;
29908;SDS011;36247;51.952;6.146;2023-04-06T07:40:57;28.75;;;16.58;;
29908;SDS011;36247;51.952;6.146;2023-04-06T07:43:23;29.63;;;17.98;;
29908;SDS011;36247;51.952;6.146;2023-04-06T07:45:50;32.17;;;17.60;;
29908;SDS011;36247;51.952;6.146;2023-04-06T07:48:16;29.33;;;17.98;;
29908;SDS011;36247;51.952;6.146;2023-04-06T07:50:42;30.10;;;17.10;;
29908;SDS011;36247;51.952;6.146;2023-04-06T07:53:08;26.48;;;16.45;;
29908;SDS011;36247;51.952;6.146;2023-04-06T07:55:35;28.38;;;16.85;;
29908;SDS011;36247;51.952;6.146;2023-04-06T07:58:01;30.13;;;18.20;;
29908;SDS011;36247;51.952;6.146;2023-04-06T08:00:31;27.98;;;15.88;;
29908;SDS011;36247;51.952;6.146;2023-04-06T08:02:57;29.30;;;16.52;;
29908;SDS011;36247;51.952;6.146;2023-04-06T08:05:22;29.30;;;16.95;;
29908;SDS011;36247;51.952;6.146;2023-04-06T08:07:48;29.67;;;16.73;;
29908;SDS011;36247;51.952;6.146;2023-04-06T08:10:14;31.90;;;17.50;;
29908;SDS011;36247;51.952;6.146;2023-04-06T08:12:40;27.98;;;17.75;;
29908;SDS011;36247;51.952;6.146;2023-04-06T08:15:09;25.20;;;16.92;;
29908;SDS011;36247;51.952;6.146;2023-04-06T08:17:35;33.05;;;17.75;;
29908;SDS011;36247;51.952;6.146;2023-04-06T08:20:00;28.92;;;16.98;;
29908;SDS011;36247;51.952;6.146;2023-04-06T08:22:28;29.25;;;16.52;;
29908;SDS011;36247;51.952;6.146;2023-04-06T08:24:54;25.67;;;18.10;;
29908;SDS011;36247;51.952;6.146;2023-04-06T08:27:19;29.20;;;18.98;;
29908;SDS011;36247;51.952;6.146;2023-04-06T08:29:45;30.10;;;18.23;;
29908;SDS011;36247;51.952;6.146;2023-04-06T08:32:12;27.60;;;17.45;;
29908;SDS011;36247;51.952;6.146;2023-04-06T08:34:38;29.38;;;19.20;;
29908;SDS011;36247;51.952;6.146;2023-04-06T08:37:03;30.33;;;16.75;;
29908;SDS011;36247;51.952;6.146;2023-04-06T08:39:30;29.33;;;19.10;;
29908;SDS011;36247;51.952;6.146;2023-04-06T08:41:58;29.90;;;19.15;;
29908;SDS011;36247;51.952;6.146;2023-04-06T08:44:28;26.83;;;17.88;;
29908;SDS011;36247;51.952;6.146;2023-04-06T08:46:58;28.33;;;18.02;;
29908;SDS011;36247;51.952;6.146;2023-04-06T08:49:24;30.95;;;18.90;;
29908;SDS011;36247;51.952;6.146;2023-04-06T08:51:51;29.35;;;17.50;;
29908;SDS011;36247;51.952;6.146;2023-04-06T08:54:17;37.45;;;19.08;;
29908;SDS011;36247;51.952;6.146;2023-04-06T08:56:43;36.40;;;19.25;;
29908;SDS011;36247;51.952;6.146;2023-04-06T08:59:09;33.70;;;18.40;;
29908;SDS011;36247;51.952;6.146;2023-04-06T09:01:39;31.75;;;18.70;;
29908;SDS011;36247;51.952;6.146;2023-04-06T09:04:08;28.92;;;17.70;;
29908;SDS011;36247;51.952;6.146;2023-04-06T09:06:35;28.15;;;17.73;;
29908;SDS011;36247;51.952;6.146;2023-04-06T09:09:02;28.33;;;16.65;;
29908;SDS011;36247;51.952;6.146;2023-04-06T09:11:43;27.65;;;17.65;;
29908;SDS011;36247;51.952;6.146;2023-04-06T09:14:13;29.38;;;16.95;;
29908;SDS011;36247;51.952;6.146;2023-04-06T09:16:39;27.42;;;17.83;;
29908;SDS011;36247;51.952;6.146;2023-04-06T09:19:06;34.42;;;19.38;;
29908;SDS011;36247;51.952;6.146;2023-04-06T09:21:35;35.88;;;19.17;;
29908;SDS011;36247;51.952;6.146;2023-04-06T09:24:02;30.88;;;17.88;;
29908;SDS011;36247;51.952;6.146;2023-04-06T09:26:28;34.70;;;18.48;;
29908;SDS011;36247;51.952;6.146;2023-04-06T09:28:55;24.95;;;16.83;;
29908;SDS011;36247;51.952;6.146;2023-04-06T09:31:25;29.55;;;17.27;;
29908;SDS011;36247;51.952;6.146;2023-04-06T09:33:53;29.85;;;17.40;;
29908;SDS011;36247;51.952;6.146;2023-04-06T09:36:19;29.20;;;17.23;;
29908;SDS011;36247;51.952;6.146;2023-04-06T09:38:52;29.45;;;17.85;;
29908;SDS011;36247;51.952;6.146;2023-04-06T09:43:49;28.42;;;17.75;;
29908;SDS011;36247;51.952;6.146;2023-04-06T09:46:15;29.48;;;17.98;;
29908;SDS011;36247;51.952;6.146;2023-04-06T09:48:41;25.02;;;16.38;;
29908;SDS011;36247;51.952;6.146;2023-04-06T09:51:07;29.20;;;17.45;;
29908;SDS011;36247;51.952;6.146;2023-04-06T09:53:37;27.67;;;17.33;;
29908;SDS011;36247;51.952;6.146;2023-04-06T09:56:07;25.77;;;17.60;;
29908;SDS011;36247;51.952;6.146;2023-04-06T09:58:37;28.75;;;17.88;;
29908;SDS011;36247;51.952;6.146;2023-04-06T10:18:51;27.30;;;18.52;;
29908;SDS011;36247;51.952;6.146;2023-04-06T12:25:35;22.60;;;13.73;;
29908;SDS011;36247;51.952;6.146;2023-04-06T12:28:05;17.45;;;13.13;;
29908;SDS011;36247;51.952;6.146;2023-04-06T12:30:35;19.35;;;12.52;;
29908;SDS011;36247;51.952;6.146;2023-04-06T12:33:24;20.77;;;11.27;;
29908;SDS011;36247;51.952;6.146;2023-04-06T12:35:50;18.63;;;11.57;;
29908;SDS011;36247;51.952;6.146;2023-04-06T12:38:22;15.45;;;10.93;;
29908;SDS011;36247;51.952;6.146;2023-04-06T12:40:51;17.08;;;12.10;;
29908;SDS011;36247;51.952;6.146;2023-04-06T12:43:17;16.75;;;12.65;;
29908;SDS011;36247;51.952;6.146;2023-04-06T12:45:48;18.00;;;12.00;;
29908;SDS011;36247;51.952;6.146;2023-04-06T12:48:14;17.23;;;11.05;;
29908;SDS011;36247;51.952;6.146;2023-04-06T12:50:40;21.85;;;12.25;;
29908;SDS011;36247;51.952;6.146;2023-04-06T12:53:06;18.13;;;11.43;;
29908;SDS011;36247;51.952;6.146;2023-04-06T12:55:35;20.40;;;13.15;;
29908;SDS011;36247;51.952;6.146;2023-04-06T12:58:02;20.27;;;13.27;;
29908;SDS011;36247;51.952;6.146;2023-04-06T13:00:54;17.90;;;11.48;;
29908;SDS011;36247;51.952;6.146;2023-04-06T15:15:20;18.48;;;11.75;;
29908;SDS011;36247;51.952;6.146;2023-04-06T17:14:21;20.95;;;14.70;;
29908;SDS011;36247;51.952;6.146;2023-04-06T17:18:06;23.48;;;15.05;;
29908;SDS011;36247;51.952;6.146;2023-04-06T19:02:00;26.65;;;17.73;;
29908;SDS011;36247;51.952;6.146;2023-04-06T19:40:22;25.25;;;18.40;;
29908;SDS011;36247;51.952;6.146;2023-04-06T19:49:37;25.75;;;19.77;;
29908;SDS011;36247;51.952;6.146;2023-04-06T20:02:08;26.55;;;18.85;;
29908;SDS011;36247;51.952;6.146;2023-04-06T20:09:30;25.23;;;18.35;;
